Terminal Aerodrome Forecast
Issued by NWS

Home | Current Version | Previous Version | Text Only | Print | Product List | Glossary On
Versions: 1 2 3 4 5 6 7 8 9 10 11 12 13 14 15 16
000
FTPA31 PHFO 101726
TAFHLI
TAF
PHLI 101726Z 1018/1118 28005KT P6SM SCT022 BKN150
     FM101900 15008KT P6SM VCSH SCT022 BKN050
     FM110200 VRB05KT P6SM VCSH SCT025 BKN050
     FM110500 24006KT P6SM FEW025 SCT050=

USA.gov is the U.S. government's official web portal to all federal, state and local government web resources and services.